Time;durP1;ratioP1;P1;durP2;ratioP2;P2;SDS_P1;SDS_P2;PMS_P1;PMS_P2;Temp;Humidity;BMP_temperature;BMP_pressure;BME280_temperature;BME280_humidity;BME280_pressure;Samples;Min_cycle;Max_cycle;Signal;HPM_P1;HPM_P2
2021/05/22 00:00:40;;;;;;;1.40;1.25;;;10.30;99.90;;;;;;5159756;27;20667;-81
2021/05/22 00:03:06;;;;;;;1.13;0.60;;;10.20;99.90;;;;;;5159299;27;20204;-81
2021/05/22 00:05:32;;;;;;;1.00;0.90;;;10.20;99.90;;;;;;5159923;27;20461;-81
2021/05/22 00:07:59;;;;;;;0.77;0.77;;;10.20;99.90;;;;;;5159841;27;20203;-81
2021/05/22 00:10:25;;;;;;;0.70;0.70;;;10.20;99.90;;;;;;5159971;27;20212;-81
2021/05/22 00:12:52;;;;;;;0.70;0.70;;;10.20;99.90;;;;;;5159298;27;20539;-81
2021/05/22 00:15:19;;;;;;;1.77;0.68;;;10.20;99.90;;;;;;5159696;27;20218;-81
2021/05/22 00:17:45;;;;;;;0.70;0.70;;;10.20;99.90;;;;;;5159414;27;20200;-81
2021/05/22 00:20:13;;;;;;;0.88;0.75;;;10.30;99.90;;;;;;5159809;27;20445;-81
2021/05/22 00:22:40;;;;;;;0.95;0.70;;;10.30;99.90;;;;;;5159666;27;20204;-81
2021/05/22 00:25:08;;;;;;;0.90;0.90;;;10.30;99.90;;;;;;5159193;27;20544;-81
2021/05/22 00:27:34;;;;;;;4.90;2.45;;;10.20;99.90;;;;;;5159172;27;20457;-81
2021/05/22 00:30:02;;;;;;;0.85;0.85;;;10.20;99.90;;;;;;5159362;27;20223;-81
2021/05/22 00:32:28;;;;;;;2.88;0.82;;;10.30;99.90;;;;;;5158967;27;20364;-81
2021/05/22 00:34:54;;;;;;;0.70;0.70;;;10.30;99.90;;;;;;5159386;27;20216;-81
2021/05/22 00:37:20;;;;;;;1.00;0.70;;;10.30;99.90;;;;;;5158120;27;20208;-81
2021/05/22 00:39:47;;;;;;;0.70;0.70;;;10.20;99.90;;;;;;5159269;27;20590;-81
2021/05/22 00:42:13;;;;;;;2.47;1.13;;;10.20;99.90;;;;;;5158587;27;20503;-81
2021/05/22 00:45:11;;;;;;;0.82;0.70;;;10.10;99.90;;;;;;5159026;27;20448;-81
2021/05/22 00:47:39;;;;;;;0.80;0.67;;;10.10;99.90;;;;;;5158965;27;20329;-81
2021/05/22 00:50:07;;;;;;;1.15;0.70;;;10.20;99.90;;;;;;5158904;27;20473;-81
2021/05/22 00:52:33;;;;;;;1.35;0.75;;;10.10;99.90;;;;;;5158664;27;20209;-81
2021/05/22 00:54:59;;;;;;;0.60;0.60;;;10.10;99.90;;;;;;5158709;27;20205;-81
2021/05/22 00:57:26;;;;;;;0.40;0.40;;;10.00;99.90;;;;;;5158358;27;20207;-81
2021/05/22 00:59:53;;;;;;;0.40;0.40;;;10.00;99.90;;;;;;5158859;27;20227;-81
2021/05/22 01:02:24;;;;;;;0.40;0.40;;;10.00;99.90;;;;;;5164735;27;20228;-79
2021/05/22 01:04:50;;;;;;;0.73;0.73;;;10.00;99.90;;;;;;5166610;27;20197;-80
2021/05/22 01:07:17;;;;;;;0.52;0.52;;;10.00;99.90;;;;;;5159362;27;20199;-81
2021/05/22 01:09:44;;;;;;;0.93;0.93;;;10.00;99.90;;;;;;5157609;27;20629;-82
2021/05/22 01:12:12;;;;;;;0.67;0.67;;;9.90;99.90;;;;;;5157494;27;20210;-80
2021/05/22 01:14:42;;;;;;;1.60;0.80;;;9.90;99.90;;;;;;5157045;27;20893;-80
2021/05/22 01:17:10;;;;;;;0.70;0.63;;;9.90;99.90;;;;;;5157208;27;20447;-80
2021/05/22 01:19:41;;;;;;;0.75;0.75;;;9.90;99.90;;;;;;5157162;27;20224;-82
2021/05/22 01:22:08;;;;;;;1.77;0.67;;;9.90;99.90;;;;;;5157069;27;20184;-80
2021/05/22 01:24:44;;;;;;;0.60;0.60;;;9.90;99.90;;;;;;5158133;27;21018;-81
2021/05/22 01:27:12;;;;;;;0.60;0.60;;;10.00;99.90;;;;;;5160487;27;20579;-80
2021/05/22 01:29:39;;;;;;;0.80;0.80;;;10.00;99.90;;;;;;5157240;27;20472;-81
2021/05/22 01:32:08;;;;;;;0.40;0.40;;;9.90;99.90;;;;;;5156992;27;20230;-81
2021/05/22 01:34:35;;;;;;;2.55;0.80;;;9.90;99.90;;;;;;5156934;27;20227;-81
2021/05/22 01:37:03;;;;;;;1.48;0.90;;;9.90;99.90;;;;;;5156881;27;20218;-82
2021/05/22 01:39:31;;;;;;;1.50;0.87;;;9.90;99.90;;;;;;5156851;27;20231;-81
2021/05/22 01:42:00;;;;;;;0.60;0.60;;;9.90;99.90;;;;;;5156889;27;20442;-82
2021/05/22 01:44:33;;;;;;;1.10;0.90;;;9.90;99.90;;;;;;5156650;27;20215;-80
2021/05/22 01:47:01;;;;;;;0.82;0.70;;;10.00;99.90;;;;;;5156434;27;20209;-82
2021/05/22 01:49:29;;;;;;;0.82;0.80;;;10.10;99.90;;;;;;5156783;27;20219;-80
2021/05/22 01:51:56;;;;;;;0.77;0.77;;;10.10;99.90;;;;;;5156941;27;20205;-82
2021/05/22 01:54:24;;;;;;;1.17;1.10;;;10.00;99.90;;;;;;5156424;27;20537;-81
2021/05/22 01:56:50;;;;;;;1.30;1.00;;;10.00;99.90;;;;;;5156232;27;20202;-82
2021/05/22 01:59:17;;;;;;;2.10;1.90;;;10.00;99.90;;;;;;5156724;27;20223;-82
2021/05/22 02:01:48;;;;;;;2.20;1.23;;;10.00;99.90;;;;;;5156537;27;20276;-81
2021/05/22 02:04:14;;;;;;;1.42;0.90;;;10.00;99.90;;;;;;5156710;27;20203;-82
2021/05/22 02:06:44;;;;;;;1.38;0.90;;;10.00;99.90;;;;;;5156361;27;20574;-82
2021/05/22 02:09:13;;;;;;;0.80;0.70;;;10.10;99.90;;;;;;5156523;27;20232;-80
2021/05/22 02:11:43;;;;;;;2.60;1.02;;;10.10;99.90;;;;;;5156294;27;20448;-82
2021/05/22 02:14:15;;;;;;;2.50;1.07;;;10.10;99.90;;;;;;5156577;27;20219;-82
2021/05/22 02:16:47;;;;;;;2.28;1.33;;;10.10;99.90;;;;;;5156782;27;20434;-80
2021/05/22 02:19:16;;;;;;;1.10;1.02;;;10.10;99.90;;;;;;5156500;27;20220;-80
2021/05/22 02:21:45;;;;;;;1.38;1.08;;;10.20;99.90;;;;;;5156201;27;20218;-81
2021/05/22 02:24:12;;;;;;;1.63;1.03;;;10.10;99.90;;;;;;5156306;27;20202;-80
2021/05/22 02:26:40;;;;;;;0.87;0.70;;;10.20;99.90;;;;;;5156181;27;20445;-82
2021/05/22 02:29:08;;;;;;;1.90;1.00;;;10.10;99.90;;;;;;5156375;27;20470;-82
2021/05/22 02:31:40;;;;;;;2.88;1.35;;;10.20;99.90;;;;;;5155632;27;20292;-82
2021/05/22 02:34:08;;;;;;;0.90;0.90;;;10.20;99.90;;;;;;5155818;27;20232;-82
2021/05/22 02:36:37;;;;;;;1.35;1.33;;;10.00;99.90;;;;;;5157634;27;20691;-83
2021/05/22 02:39:05;;;;;;;1.00;1.00;;;9.90;99.90;;;;;;5157727;27;20254;-84
2021/05/22 02:41:32;;;;;;;1.33;0.75;;;9.40;99.90;;;;;;5156944;27;20236;-83
2021/05/22 02:44:01;;;;;;;3.42;0.90;;;9.10;99.90;;;;;;5156125;27;20211;-84
2021/05/22 02:46:31;;;;;;;1.10;1.00;;;8.90;99.90;;;;;;5156478;27;20255;-83
2021/05/22 02:48:59;;;;;;;1.05;0.80;;;9.00;99.90;;;;;;5156359;27;20368;-84
2021/05/22 02:51:37;;;;;;;;;;;;;;;;;;;;;
2021/05/22 02:54:06;;;;;;;1.60;1.48;;;9.20;99.90;;;;;;5155986;27;20229;-84
2021/05/22 02:56:34;;;;;;;1.00;0.90;;;9.20;99.90;;;;;;5156519;27;20219;-84
2021/05/22 02:59:02;;;;;;;1.95;0.95;;;9.10;99.90;;;;;;5156009;27;20283;-84
2021/05/22 03:01:30;;;;;;;1.02;1.02;;;9.10;99.90;;;;;;5160133;27;20207;-84
2021/05/22 03:03:58;;;;;;;2.10;1.50;;;9.10;99.90;;;;;;5160174;27;20204;-82
2021/05/22 03:06:25;;;;;;;1.55;1.15;;;9.00;99.90;;;;;;5159872;27;20207;-84
2021/05/22 03:08:52;;;;;;;1.05;1.00;;;9.00;99.90;;;;;;5159920;27;20233;-84
2021/05/22 03:11:21;;;;;;;1.38;1.27;;;9.10;99.90;;;;;;5160046;27;20744;-84
2021/05/22 03:13:47;;;;;;;1.30;1.15;;;9.10;99.90;;;;;;5159818;27;20223;-83
2021/05/22 03:16:14;;;;;;;2.28;1.45;;;9.10;99.90;;;;;;5159805;27;20202;-84
2021/05/22 03:18:41;;;;;;;2.40;1.45;;;9.10;99.90;;;;;;5159659;27;20223;-85
2021/05/22 03:21:09;;;;;;;2.05;1.50;;;9.00;99.90;;;;;;5159615;27;20214;-84
2021/05/22 03:23:37;;;;;;;4.10;1.48;;;9.00;99.90;;;;;;5159650;27;20202;-84
2021/05/22 03:26:03;;;;;;;2.03;1.45;;;9.00;99.90;;;;;;5159665;27;20206;-83
2021/05/22 03:28:38;;;;;;;2.55;1.20;;;9.00;99.90;;;;;;5159214;27;20369;-84
2021/05/22 03:31:09;;;;;;;5.50;1.33;;;8.90;99.90;;;;;;5159759;27;20331;-84
2021/05/22 03:33:37;;;;;;;1.92;1.30;;;8.80;99.90;;;;;;5159215;27;20211;-84
2021/05/22 03:36:17;;;;;;;2.00;1.42;;;8.80;99.90;;;;;;5159599;27;20202;-84
2021/05/22 03:38:49;;;;;;;1.65;1.52;;;8.80;99.90;;;;;;5159521;27;20233;-84
2021/05/22 03:41:16;;;;;;;2.13;1.23;;;8.70;99.90;;;;;;5159187;27;20208;-83
2021/05/22 03:44:06;;;;;;;;;;;;;;;;;;;;;
2021/05/22 03:46:40;;;;;;;5.90;1.80;;;8.80;99.90;;;;;;5159150;27;20200;-84
2021/05/22 03:49:07;;;;;;;1.00;1.00;;;8.80;99.90;;;;;;5159289;27;20291;-84
2021/05/22 03:51:33;;;;;;;2.03;1.48;;;8.70;99.90;;;;;;5159417;27;20206;-84
2021/05/22 03:54:00;;;;;;;1.48;1.38;;;8.70;99.90;;;;;;5158661;27;20222;-83
2021/05/22 03:56:26;;;;;;;1.10;1.05;;;8.70;99.90;;;;;;5158976;27;20285;-84
2021/05/22 03:58:53;;;;;;;3.60;1.25;;;8.80;99.90;;;;;;5158518;27;20214;-84
2021/05/22 04:01:20;;;;;;;0.95;0.95;;;8.70;99.90;;;;;;5163048;27;20206;-84
2021/05/22 04:03:46;;;;;;;1.00;1.00;;;8.80;99.90;;;;;;5164040;27;20198;-83
2021/05/22 04:06:13;;;;;;;0.77;0.70;;;8.80;99.90;;;;;;5163736;27;20202;-83
2021/05/22 04:08:39;;;;;;;2.05;1.25;;;8.90;99.90;;;;;;5163315;27;20232;-81
2021/05/22 04:11:06;;;;;;;3.67;1.92;;;8.90;99.90;;;;;;5163548;27;20206;-83
2021/05/22 04:13:34;;;;;;;1.52;1.42;;;9.00;99.90;;;;;;5163007;27;20255;-83
2021/05/22 04:16:01;;;;;;;3.50;1.63;;;9.00;99.90;;;;;;5163456;27;20255;-84
2021/05/22 04:18:29;;;;;;;1.70;1.58;;;9.00;99.90;;;;;;5162866;27;20222;-84
2021/05/22 04:21:07;;;;;;;;;;;;;;;;;;;;;
2021/05/22 04:23:34;;;;;;;1.73;1.23;;;9.10;99.90;;;;;;5158233;27;20198;-85
2021/05/22 04:26:00;;;;;;;1.17;0.98;;;9.10;99.90;;;;;;5158443;27;20194;-84
2021/05/22 04:28:32;;;;;;;1.88;1.15;;;9.10;99.90;;;;;;5158230;27;20226;-84
2021/05/22 04:30:58;;;;;;;1.20;1.00;;;9.10;99.90;;;;;;5158351;27;20191;-82
2021/05/22 04:33:24;;;;;;;1.30;1.20;;;9.10;99.90;;;;;;5158591;27;20231;-84
2021/05/22 04:35:52;;;;;;;0.93;0.93;;;9.10;99.90;;;;;;5158523;27;20203;-82
2021/05/22 04:38:21;;;;;;;1.55;1.40;;;9.10;99.90;;;;;;5158716;27;20257;-84
2021/05/22 04:40:47;;;;;;;1.15;0.93;;;9.10;99.90;;;;;;5158767;27;20217;-85
2021/05/22 04:43:16;;;;;;;1.83;0.90;;;9.00;99.90;;;;;;5160649;27;20198;-81
2021/05/22 04:45:51;;;;;;;1.15;1.10;;;9.00;99.90;;;;;;5159693;27;20205;-84
2021/05/22 04:48:17;;;;;;;0.85;0.85;;;8.90;99.90;;;;;;5158498;27;20233;-85
2021/05/22 04:50:43;;;;;;;1.55;1.25;;;8.90;99.90;;;;;;5162301;27;20231;-80
2021/05/22 04:53:10;;;;;;;1.55;0.85;;;8.90;99.90;;;;;;5175246;27;20698;-80
2021/05/22 04:55:37;;;;;;;0.93;0.90;;;8.90;99.90;;;;;;5175545;27;20202;-82
2021/05/22 04:58:03;;;;;;;1.15;0.95;;;8.90;99.90;;;;;;5175105;27;20198;-82
2021/05/22 05:00:31;;;;;;;3.22;1.05;;;9.00;99.90;;;;;;5165168;27;20660;-84
2021/05/22 05:19:34;;;;;;;;;;;;;;;;;;;;;
2021/05/22 05:25:52;;;;;;;2.03;1.00;;;9.40;99.90;;;;;;5050430;28;20766;-85
2021/05/22 05:28:59;;;;;;;0.60;0.60;;;9.50;99.90;;;;;;5005763;28;20238;-84
2021/05/22 05:32:02;;;;;;;4.38;0.95;;;9.50;99.90;;;;;;5026859;28;20269;-84
2021/05/22 05:38:40;;;;;;;;;;;;;;;;;;;;;
2021/05/22 06:04:19;;;;;;;1.85;1.10;;;10.50;99.90;;;;;;4906915;29;20220;-84
2021/05/22 06:06:47;;;;;;;1.55;1.42;;;10.50;99.90;;;;;;5017528;28;20619;-83
2021/05/22 06:09:15;;;;;;;4.80;1.63;;;10.50;99.90;;;;;;5090922;27;20227;-84
2021/05/22 06:11:41;;;;;;;1.15;1.05;;;10.40;99.90;;;;;;5156150;27;20513;-84
2021/05/22 06:14:13;;;;;;;2.33;1.37;;;10.50;99.90;;;;;;5156081;27;20662;-83
2021/05/22 06:16:40;;;;;;;2.17;1.27;;;10.50;99.90;;;;;;5156113;27;20525;-84
2021/05/22 06:19:08;;;;;;;2.35;2.25;;;10.60;99.90;;;;;;5156308;27;20869;-83
2021/05/22 06:40:02;;;;;;;3.30;1.20;;;11.20;99.90;;;;;;4934799;28;20235;-82
2021/05/22 06:42:32;;;;;;;3.43;1.00;;;11.20;99.90;;;;;;5160737;27;20437;-81
2021/05/22 06:45:20;;;;;;;3.87;1.70;;;11.20;99.90;;;;;;5161407;27;20441;-82
2021/05/22 06:48:14;;;;;;;4.53;1.70;;;11.20;99.90;;;;;;5160057;27;20436;-82
2021/05/22 06:53:59;;;;;;;4.30;1.40;;;11.40;99.90;;;;;;5140787;27;21014;-82
2021/05/22 06:56:34;;;;;;;2.13;1.40;;;11.30;99.90;;;;;;5159945;27;20460;-82
2021/05/22 06:59:17;;;;;;;;;;;;;;;;;;;;;
2021/05/22 07:02:18;;;;;;;;;;;;;;;;;;;;;
2021/05/22 07:05:09;;;;;;;1.27;1.17;;;11.40;99.90;;;;;;5156589;27;20508;-82
2021/05/22 07:08:00;;;;;;;4.13;1.70;;;11.40;99.90;;;;;;5158485;27;20658;-82
2021/05/22 07:10:27;;;;;;;4.10;1.53;;;11.40;99.90;;;;;;5075379;28;20553;-83
2021/05/22 07:12:55;;;;;;;4.00;2.07;;;11.60;99.90;;;;;;5077886;28;20465;-82
2021/05/22 07:15:21;;;;;;;1.73;1.60;;;11.60;99.90;;;;;;5122292;27;21006;-82
2021/05/22 07:17:47;;;;;;;4.03;2.30;;;11.80;99.90;;;;;;5161469;27;20462;-82
2021/05/22 07:20:15;;;;;;;8.20;2.20;;;11.80;99.90;;;;;;5161209;27;20438;-82
2021/05/22 07:22:41;;;;;;;2.40;1.27;;;11.80;99.90;;;;;;5158472;27;20776;-82
2021/05/22 07:25:09;;;;;;;3.03;1.37;;;12.00;99.90;;;;;;5161598;27;21040;-82
2021/05/22 07:27:36;;;;;;;2.27;1.07;;;12.00;99.90;;;;;;5161890;27;20525;-82
2021/05/22 07:30:06;;;;;;;3.50;1.53;;;12.20;99.90;;;;;;5159177;27;20491;-81
2021/05/22 07:32:33;;;;;;;3.37;1.53;;;12.30;99.90;;;;;;5161744;27;20452;-82
2021/05/22 07:34:59;;;;;;;1.27;1.17;;;12.30;99.40;;;;;;5162501;27;20537;-82
2021/05/22 07:37:25;;;;;;;1.20;1.10;;;12.40;99.40;;;;;;5162779;27;21008;-82
2021/05/22 07:39:53;;;;;;;1.60;1.20;;;12.40;99.30;;;;;;5161699;27;20515;-82
2021/05/22 07:42:20;;;;;;;2.60;1.20;;;12.20;97.80;;;;;;5160624;27;20452;-82
2021/05/22 07:44:46;;;;;;;3.40;1.30;;;12.20;98.40;;;;;;5161124;27;20432;-82
2021/05/22 07:47:13;;;;;;;2.00;1.13;;;12.20;98.70;;;;;;5161367;27;20493;-82
2021/05/22 07:49:39;;;;;;;1.27;0.83;;;12.40;98.70;;;;;;5161396;27;20855;-82
2021/05/22 07:52:08;;;;;;;1.03;0.93;;;12.50;99.00;;;;;;5160642;27;20515;-82
2021/05/22 07:54:35;;;;;;;4.43;1.70;;;12.60;98.00;;;;;;5161663;27;20475;-82
2021/05/22 07:57:04;;;;;;;3.83;1.70;;;12.70;98.10;;;;;;5160774;27;20446;-82
2021/05/22 07:59:31;;;;;;;5.80;1.90;;;12.80;96.70;;;;;;5161164;27;20466;-82
2021/05/22 08:01:57;;;;;;;2.10;0.90;;;12.80;95.80;;;;;;5160406;27;20432;-82
2021/05/22 08:04:24;;;;;;;2.40;1.70;;;12.90;95.40;;;;;;5158108;27;20449;-82
2021/05/22 08:06:51;;;;;;;3.60;1.10;;;13.00;94.80;;;;;;5160162;27;20439;-81
2021/05/22 08:09:17;;;;;;;5.50;1.67;;;13.00;94.90;;;;;;5160305;27;20458;-80
2021/05/22 08:11:48;;;;;;;6.20;1.67;;;13.20;94.40;;;;;;5156396;27;20466;-81
2021/05/22 08:14:14;;;;;;;1.37;1.27;;;13.40;95.00;;;;;;5159785;27;20479;-82
2021/05/22 08:16:41;;;;;;;2.23;1.00;;;13.30;95.30;;;;;;5171416;27;20440;-81
2021/05/22 08:19:08;;;;;;;1.53;0.73;;;13.20;94.70;;;;;;5175325;27;20458;-80
2021/05/22 08:21:35;;;;;;;3.27;1.10;;;13.30;95.20;;;;;;5167191;27;20496;-81
2021/05/22 08:24:02;;;;;;;3.90;1.13;;;13.30;94.80;;;;;;5161075;27;20455;-82
2021/05/22 08:26:28;;;;;;;3.87;1.10;;;13.40;94.60;;;;;;5160176;27;20451;-82
2021/05/22 08:28:55;;;;;;;1.30;1.10;;;13.40;93.80;;;;;;5158204;27;20455;-82
2021/05/22 08:31:22;;;;;;;2.53;1.07;;;13.40;94.50;;;;;;5160861;27;21019;-81
2021/05/22 08:33:49;;;;;;;2.40;0.80;;;13.60;94.40;;;;;;5161548;27;20487;-82
2021/05/22 08:36:16;;;;;;;1.27;0.80;;;13.70;93.00;;;;;;5163649;27;20448;-81
2021/05/22 08:38:43;;;;;;;2.17;1.07;;;13.80;92.70;;;;;;5162174;27;20472;-80
2021/05/22 08:41:10;;;;;;;2.03;1.17;;;13.80;91.30;;;;;;5161965;27;20439;-80
2021/05/22 08:43:36;;;;;;;1.83;0.90;;;13.70;91.50;;;;;;5162757;27;20454;-81
2021/05/22 08:46:08;;;;;;;1.30;1.20;;;13.70;91.50;;;;;;5161163;27;20459;-80
2021/05/22 08:48:35;;;;;;;3.60;1.37;;;13.70;91.60;;;;;;5160267;27;20474;-80
2021/05/22 08:51:01;;;;;;;1.50;1.17;;;13.80;91.50;;;;;;5160607;27;20452;-80
2021/05/22 08:53:28;;;;;;;1.60;1.23;;;13.70;90.70;;;;;;5161775;27;20813;-80
2021/05/22 08:55:55;;;;;;;1.23;1.13;;;13.80;89.70;;;;;;5160344;27;20447;-80
2021/05/22 08:58:21;;;;;;;3.23;1.47;;;13.90;90.50;;;;;;5158802;27;20479;-80
2021/05/22 09:00:48;;;;;;;2.13;1.60;;;14.00;90.10;;;;;;5161162;27;20501;-78
2021/05/22 09:03:15;;;;;;;1.00;0.67;;;13.90;88.10;;;;;;5160721;27;20516;-81
2021/05/22 09:05:42;;;;;;;0.77;0.77;;;14.00;88.30;;;;;;5163675;27;20448;-80
2021/05/22 09:08:11;;;;;;;1.80;0.87;;;13.90;87.20;;;;;;5160096;27;20460;-80
2021/05/22 09:10:41;;;;;;;1.20;1.00;;;14.00;87.70;;;;;;5159809;27;20491;-80
2021/05/22 09:13:10;;;;;;;1.60;0.77;;;14.10;87.40;;;;;;5159111;27;20451;-80
2021/05/22 09:15:38;;;;;;;3.57;1.23;;;14.00;86.30;;;;;;5158609;27;20950;-80
2021/05/22 09:18:09;;;;;;;2.50;0.83;;;14.00;85.60;;;;;;5158488;27;20451;-80
2021/05/22 09:20:37;;;;;;;1.47;1.20;;;14.00;85.30;;;;;;5158635;27;20538;-80
2021/05/22 09:23:05;;;;;;;3.40;1.20;;;14.10;86.60;;;;;;5158267;27;20487;-80
2021/05/22 09:25:34;;;;;;;1.90;0.90;;;14.30;85.20;;;;;;5158656;27;20447;-79
2021/05/22 09:28:00;;;;;;;2.13;1.10;;;14.50;83.70;;;;;;5158037;27;20447;-80
2021/05/22 09:30:30;;;;;;;0.83;0.83;;;14.60;82.80;;;;;;5159222;27;20448;-80
2021/05/22 09:32:57;;;;;;;0.93;0.90;;;14.70;80.60;;;;;;5158351;27;20447;-80
2021/05/22 09:35:24;;;;;;;3.80;0.87;;;14.70;81.30;;;;;;5158668;27;20480;-79
2021/05/22 09:37:52;;;;;;;6.93;1.13;;;14.80;82.30;;;;;;5158509;27;20959;-80
2021/05/22 09:40:21;;;;;;;1.13;0.60;;;14.90;83.20;;;;;;5158078;27;20454;-81
2021/05/22 09:42:48;;;;;;;1.37;0.83;;;15.00;82.70;;;;;;5159263;27;20445;-80
2021/05/22 09:45:29;;;;;;;1.00;0.73;;;15.10;83.90;;;;;;5159004;27;20447;-81
2021/05/22 09:47:59;;;;;;;1.47;1.30;;;15.30;79.80;;;;;;5158238;27;20455;-80
2021/05/22 09:50:33;;;;;;;1.40;0.93;;;15.40;77.80;;;;;;5158743;27;20447;-82
2021/05/22 09:53:01;;;;;;;2.00;1.20;;;15.30;76.80;;;;;;5158753;27;20934;-81
2021/05/22 09:55:27;;;;;;;1.73;0.83;;;15.50;80.00;;;;;;5158586;27;20487;-81
2021/05/22 09:57:56;;;;;;;1.63;1.07;;;15.60;80.60;;;;;;5158495;27;20452;-82
2021/05/22 10:00:24;;;;;;;1.77;1.20;;;15.70;80.70;;;;;;5158633;27;20498;-82
2021/05/22 10:02:53;;;;;;;1.10;0.83;;;15.80;80.50;;;;;;5158479;27;20448;-82
2021/05/22 10:05:21;;;;;;;2.03;0.90;;;15.90;77.00;;;;;;5158668;27;20957;-81
2021/05/22 10:07:49;;;;;;;1.33;0.97;;;16.00;78.20;;;;;;5158359;27;20450;-81
2021/05/22 10:10:16;;;;;;;1.53;0.97;;;16.00;78.10;;;;;;5157770;27;20444;-81
2021/05/22 10:12:45;;;;;;;1.03;0.70;;;16.10;78.90;;;;;;5158350;27;20508;-82
2021/05/22 10:15:12;;;;;;;0.90;0.70;;;16.20;76.80;;;;;;5158138;27;20883;-80
2021/05/22 10:17:39;;;;;;;0.83;0.63;;;16.10;75.60;;;;;;5158407;27;20455;-81
2021/05/22 10:20:08;;;;;;;1.27;0.87;;;16.10;76.30;;;;;;5159509;27;20842;-80
2021/05/22 10:22:35;;;;;;;2.00;1.90;;;16.20;76.10;;;;;;5158714;27;20440;-80
2021/05/22 10:25:02;;;;;;;1.40;1.17;;;16.20;75.30;;;;;;5158441;27;20506;-80
2021/05/22 10:27:29;;;;;;;3.13;1.73;;;16.30;75.00;;;;;;5158741;27;20445;-82
2021/05/22 10:29:55;;;;;;;3.60;1.10;;;16.30;75.00;;;;;;5159107;27;20980;-80
2021/05/22 10:32:24;;;;;;;1.27;0.93;;;16.40;72.70;;;;;;5158830;27;20444;-80
2021/05/22 10:34:51;;;;;;;1.80;0.83;;;16.40;70.30;;;;;;5158076;27;20534;-80
2021/05/22 10:37:38;;;;;;;1.10;0.80;;;16.50;68.60;;;;;;5161152;27;20645;-80
2021/05/22 10:40:06;;;;;;;1.93;0.60;;;16.60;66.80;;;;;;5165652;27;20468;-81
2021/05/22 10:42:47;;;;;;;0.70;0.60;;;16.60;66.20;;;;;;5169848;27;20456;-79
2021/05/22 10:45:32;;;;;;;2.30;1.33;;;16.70;68.30;;;;;;5151496;27;20927;-80
2021/05/22 10:48:00;;;;;;;2.77;0.90;;;16.80;70.70;;;;;;5147790;27;20461;-80
2021/05/22 10:50:40;;;;;;;1.40;0.67;;;16.90;67.50;;;;;;5154525;27;20433;-83
2021/05/22 10:53:22;;;;;;;1.17;0.57;;;16.90;64.80;;;;;;5156369;27;20542;-82
2021/05/22 11:03:17;;;;;;;5.10;1.30;;;17.00;62.70;;;;;;5087540;28;20436;-82
2021/05/22 11:05:44;;;;;;;2.97;1.80;;;17.30;66.00;;;;;;5093131;28;20454;-82
2021/05/22 11:08:33;;;;;;;1.80;1.03;;;17.60;61.90;;;;;;5092533;28;20471;-81
2021/05/22 11:11:00;;;;;;;1.80;0.87;;;18.00;64.20;;;;;;5129095;27;20433;-82
2021/05/22 11:13:39;;;;;;;0.90;0.83;;;18.40;62.50;;;;;;5157502;27;20959;-81
2021/05/22 11:16:09;;;;;;;1.23;0.80;;;18.70;59.90;;;;;;5157222;27;20455;-82
2021/05/22 11:26:06;;;;;;;2.20;0.73;;;19.60;55.20;;;;;;4942094;28;20453;-81
2021/05/22 11:29:02;;;;;;;1.17;0.83;;;19.80;55.20;;;;;;5034742;28;20833;-81
2021/05/22 11:31:36;;;;;;;1.90;0.80;;;19.90;54.10;;;;;;5118560;28;20571;-80
2021/05/22 11:38:32;;;;;;;1.93;0.70;;;19.80;53.40;;;;;;4972839;28;20989;-81
2021/05/22 11:40:59;;;;;;;0.60;0.60;;;19.90;53.30;;;;;;5006950;28;20453;-80
2021/05/22 11:43:30;;;;;;;2.10;0.90;;;19.90;54.20;;;;;;5121612;28;20941;-80
2021/05/22 11:45:59;;;;;;;0.93;0.70;;;20.20;53.50;;;;;;5123158;28;20453;-80
2021/05/22 11:48:26;;;;;;;1.67;1.00;;;20.00;51.20;;;;;;5122903;28;20493;-80
2021/05/22 11:50:54;;;;;;;2.80;0.70;;;20.10;52.20;;;;;;5123072;28;20450;-81
2021/05/22 11:53:20;;;;;;;0.67;0.60;;;20.50;53.40;;;;;;5122515;28;20959;-80
2021/05/22 11:55:54;;;;;;;0.73;0.70;;;20.80;51.50;;;;;;5124257;28;20482;-81
2021/05/22 11:58:21;;;;;;;1.33;0.70;;;20.90;50.50;;;;;;5123185;28;20471;-80
2021/05/22 12:00:48;;;;;;;1.90;0.90;;;20.90;49.20;;;;;;5123504;27;20535;-80
2021/05/22 12:03:22;;;;;;;1.00;0.93;;;20.80;47.00;;;;;;5122197;28;20498;-79
2021/05/22 12:05:49;;;;;;;1.17;1.07;;;20.50;48.40;;;;;;5122975;28;20441;-79
2021/05/22 12:08:16;;;;;;;0.90;0.60;;;20.50;51.10;;;;;;5122765;28;20462;-79
2021/05/22 12:10:43;;;;;;;1.50;0.90;;;20.90;50.80;;;;;;5122445;28;20461;-80
2021/05/22 12:13:09;;;;;;;2.60;0.93;;;21.40;50.60;;;;;;5122998;28;20449;-79
2021/05/22 12:15:38;;;;;;;0.63;0.53;;;21.60;49.80;;;;;;5122577;28;20485;-80
2021/05/22 12:18:07;;;;;;;0.60;0.60;;;21.50;48.50;;;;;;5123370;28;20450;-79
2021/05/22 12:20:45;;;;;;;1.80;0.87;;;21.70;50.50;;;;;;5123178;28;20484;-80
2021/05/22 12:23:27;;;;;;;0.93;0.37;;;22.10;50.30;;;;;;5123121;28;20456;-79
2021/05/22 12:25:55;;;;;;;1.17;0.90;;;22.30;49.30;;;;;;5122495;28;20441;-79
2021/05/22 12:28:22;;;;;;;1.67;0.77;;;22.70;49.50;;;;;;5122808;28;20591;-79
2021/05/22 12:30:51;;;;;;;2.73;1.73;;;22.70;45.80;;;;;;5123044;28;20495;-79
2021/05/22 12:33:18;;;;;;;2.70;1.00;;;22.40;45.80;;;;;;5121985;28;20470;-80
2021/05/22 12:35:46;;;;;;;0.57;0.50;;;22.50;48.90;;;;;;5121740;28;20487;-80
2021/05/22 12:38:13;;;;;;;1.00;0.80;;;22.80;48.30;;;;;;5121935;28;20476;-79
2021/05/22 12:40:50;;;;;;;1.07;0.70;;;23.20;46.10;;;;;;5122090;28;20455;-80
2021/05/22 12:43:17;;;;;;;1.60;0.60;;;23.00;44.30;;;;;;5087378;28;20458;-80
2021/05/22 12:45:44;;;;;;;1.60;0.77;;;22.60;45.40;;;;;;5081680;28;20865;-79
2021/05/22 12:48:25;;;;;;;1.10;1.00;;;22.00;47.20;;;;;;5081110;28;20477;-79
2021/05/22 12:50:52;;;;;;;1.43;0.90;;;21.40;48.30;;;;;;5081573;28;20439;-79
2021/05/22 12:53:29;;;;;;;1.13;0.90;;;21.00;49.00;;;;;;5080867;28;20854;-81
2021/05/22 12:56:04;;;;;;;1.10;0.77;;;20.30;49.80;;;;;;5080210;28;20536;-79
2021/05/22 12:58:31;;;;;;;0.80;0.60;;;19.80;51.00;;;;;;5080291;28;20485;-81
2021/05/22 13:22:26;;;;;;;1.10;1.00;;;19.00;52.90;;;;;;4898418;29;20453;-80
2021/05/22 13:35:30;;;;;;;1.90;0.60;;;22.40;48.30;;;;;;4873088;29;20635;-80
2021/05/22 13:42:15;;;;;;;0.90;0.50;;;22.10;46.40;;;;;;4898932;29;20531;-80
2021/05/22 13:44:57;;;;;;;1.27;1.17;;;21.90;46.20;;;;;;4950583;28;20490;-83
2021/05/22 13:47:42;;;;;;;0.90;0.60;;;21.30;47.50;;;;;;4995342;28;20456;-83
2021/05/22 13:57:12;;;;;;;2.40;0.77;;;20.40;49.20;;;;;;5052341;28;20613;-80
2021/05/22 14:00:11;;;;;;;1.57;0.70;;;20.50;50.10;;;;;;5053361;28;20547;-82
2021/05/22 14:37:08;;;;;;;3.03;0.90;;;20.90;47.90;;;;;;1329872;22;20761;-82
2021/05/22 14:39:34;;;;;;;5.40;3.60;;;20.90;47.80;;;;;;5060590;28;20790;-83
2021/05/22 14:42:00;;;;;;;2.97;1.70;;;20.60;48.00;;;;;;5060064;28;20452;-80
2021/05/22 14:44:27;;;;;;;2.50;1.10;;;20.10;48.30;;;;;;5058783;28;20498;-82
2021/05/22 14:46:53;;;;;;;1.03;0.93;;;19.80;49.50;;;;;;5060187;28;20487;-83
2021/05/22 14:49:19;;;;;;;1.50;0.60;;;20.20;49.80;;;;;;5059110;28;20519;-84
2021/05/22 14:51:46;;;;;;;1.80;0.93;;;20.40;49.80;;;;;;5058435;28;20455;-83
2021/05/22 14:54:13;;;;;;;1.47;0.93;;;20.10;48.60;;;;;;5059292;28;20451;-84
2021/05/22 14:56:58;;;;;;;;;;;;;;;;;;;;;
2021/05/22 14:59:59;;;;;;;0.67;0.63;;;20.50;50.10;;;;;;5064189;28;20528;-85
2021/05/22 15:02:25;;;;;;;1.20;1.00;;;21.40;48.90;;;;;;5062333;28;21024;-80
2021/05/22 15:04:52;;;;;;;0.63;0.60;;;21.90;48.90;;;;;;5062722;28;20496;-84
2021/05/22 15:07:18;;;;;;;2.10;1.00;;;22.10;47.70;;;;;;5062657;28;20457;-83
2021/05/22 15:09:45;;;;;;;0.93;0.83;;;22.60;47.70;;;;;;5061831;28;20475;-83
2021/05/22 15:12:11;;;;;;;1.17;1.03;;;23.50;47.50;;;;;;5061937;28;20452;-82
2021/05/22 15:14:38;;;;;;;1.80;0.60;;;23.90;45.00;;;;;;5061831;28;20502;-83
2021/05/22 15:17:04;;;;;;;2.30;0.67;;;24.10;45.20;;;;;;5062487;28;20448;-83
2021/05/22 15:19:31;;;;;;;1.60;0.70;;;24.50;44.50;;;;;;5061836;28;20472;-84
2021/05/22 15:22:11;;;;;;;;;;;;;;;;;;;;;
2021/05/22 15:24:40;;;;;;;0.80;0.57;;;24.00;44.50;;;;;;5062389;28;20591;-84
2021/05/22 15:27:08;;;;;;;1.17;0.90;;;24.20;43.70;;;;;;5061803;28;20459;-84
2021/05/22 15:29:34;;;;;;;3.27;1.20;;;24.60;44.00;;;;;;5062038;28;20468;-84
2021/05/22 15:32:00;;;;;;;2.30;1.10;;;23.50;43.60;;;;;;5062673;28;20462;-85
2021/05/22 15:34:29;;;;;;;2.10;0.90;;;22.90;45.50;;;;;;5063328;28;20454;-84
2021/05/22 15:43:08;;;;;;;2.97;1.57;;;24.30;44.90;;;;;;5376307;22;20551;-83
2021/05/22 15:49:20;;;;;;;1.37;0.93;;;23.70;41.60;;;;;;5064771;28;20482;-85
2021/05/22 16:03:44;;;;;;;7.57;4.77;;;24.00;41.70;;;;;;5037674;28;20448;-85
2021/05/22 16:13:07;;;;;;;1.17;1.10;;;23.10;42.40;;;;;;5043507;28;20556;-81
2021/05/22 17:11:47;;;;;;;0.67;0.60;;;25.80;37.20;;;;;;4201172;26;20517;-83
2021/05/22 17:20:51;;;;;;;0.70;0.50;;;25.50;38.40;;;;;;4962232;28;20841;-79
2021/05/22 17:23:20;;;;;;;0.80;0.70;;;25.60;38.30;;;;;;5053063;28;21123;-82
2021/05/22 17:25:47;;;;;;;1.00;0.90;;;24.90;38.40;;;;;;5051953;28;20537;-83
2021/05/22 17:28:28;;;;;;;1.47;0.80;;;24.50;39.20;;;;;;5050844;28;20457;-83
2021/05/22 17:30:56;;;;;;;1.30;1.10;;;23.60;39.70;;;;;;5049322;28;20437;-85